createdAt,value
2023-04-18T00:00:14.068Z,19.70
2023-04-18T00:02:44.211Z,22.45
2023-04-18T00:05:13.420Z,24.70
2023-04-18T00:07:44.437Z,18.00
2023-04-18T00:10:13.280Z,21.33
2023-04-18T00:12:43.040Z,20.20
2023-04-18T00:15:14.472Z,15.85
2023-04-18T00:17:43.620Z,13.38
2023-04-18T00:20:12.876Z,17.55
2023-04-18T00:22:43.950Z,18.20
2023-04-18T00:25:12.868Z,16.60
2023-04-18T00:27:41.321Z,16.67
2023-04-18T00:30:12.494Z,25.33
2023-04-18T00:32:40.997Z,15.93
2023-04-18T00:35:09.974Z,17.15
2023-04-18T00:37:39.741Z,16.88
2023-04-18T00:40:11.522Z,15.20
2023-04-18T00:42:40.973Z,16.75
2023-04-18T00:45:13.012Z,20.85
2023-04-18T00:47:43.172Z,18.20
2023-04-18T00:50:15.752Z,17.55
2023-04-18T00:52:45.345Z,18.08
2023-04-18T00:55:13.803Z,19.40
2023-04-18T00:57:43.417Z,16.15
2023-04-18T01:00:12.937Z,17.55
2023-04-18T01:02:44.401Z,20.35
2023-04-18T01:05:13.645Z,25.75
2023-04-18T01:07:42.031Z,15.40
2023-04-18T01:10:11.821Z,21.67
2023-04-18T01:12:40.641Z,16.98
2023-04-18T01:15:12.571Z,23.70
2023-04-18T01:17:41.386Z,19.63
2023-04-18T01:20:12.651Z,16.77
2023-04-18T01:22:42.231Z,20.13
2023-04-18T01:25:13.412Z,21.33
2023-04-18T01:27:41.866Z,17.65
2023-04-18T01:30:11.980Z,20.05
2023-04-18T01:32:40.459Z,19.40
2023-04-18T01:35:09.989Z,18.10
2023-04-18T01:37:38.646Z,23.00
2023-04-18T01:40:10.121Z,19.73
2023-04-18T01:42:41.626Z,17.70
2023-04-18T01:45:13.413Z,20.58
2023-04-18T01:47:43.887Z,20.13
2023-04-18T01:50:14.792Z,21.52
2023-04-18T01:52:46.048Z,19.13
2023-04-18T01:55:14.648Z,16.52
2023-04-18T01:57:44.489Z,15.40
2023-04-18T02:00:14.054Z,18.45
2023-04-18T02:02:47.892Z,17.63
2023-04-18T02:05:18.757Z,21.23
2023-04-18T02:07:49.246Z,20.45
2023-04-18T02:10:17.969Z,14.88
2023-04-18T02:12:48.330Z,19.77
2023-04-18T02:15:16.843Z,17.67
2023-04-18T02:17:45.701Z,16.60
2023-04-18T02:20:15.261Z,19.65
2023-04-18T02:22:44.451Z,16.88
2023-04-18T02:25:12.859Z,15.35
2023-04-18T02:27:41.355Z,21.67
2023-04-18T02:30:12.184Z,17.15
2023-04-18T02:32:41.076Z,15.32
2023-04-18T02:35:09.991Z,19.13
2023-04-18T02:37:38.415Z,17.38
2023-04-18T02:40:08.041Z,17.48
2023-04-18T02:42:36.654Z,25.88
2023-04-18T02:45:06.057Z,23.13
2023-04-18T02:47:46.917Z,23.05
2023-04-18T02:50:22.713Z,23.13
2023-04-18T02:52:51.356Z,20.52
2023-04-18T02:55:22.405Z,15.80
2023-04-18T02:57:51.110Z,19.15
2023-04-18T03:00:39.919Z,20.75
2023-04-18T03:03:47.361Z,21.92
2023-04-18T03:06:36.211Z,20.98
2023-04-18T03:09:07.782Z,24.80
2023-04-18T03:11:39.845Z,17.05
2023-04-18T03:14:08.901Z,20.30
2023-04-18T03:16:46.092Z,19.38
2023-04-18T03:19:19.120Z,15.57
2023-04-18T03:21:47.651Z,17.67
2023-04-18T03:24:16.397Z,20.08
2023-04-18T03:26:49.377Z,17.15
2023-04-18T03:29:20.378Z,16.38
2023-04-18T03:31:49.208Z,21.42
2023-04-18T03:34:21.856Z,19.80
2023-04-18T03:36:53.400Z,18.63
2023-04-18T03:39:24.206Z,23.63
2023-04-18T03:41:54.374Z,19.70
2023-04-18T03:44:24.157Z,25.98
2023-04-18T03:46:52.977Z,20.50
2023-04-18T03:49:23.349Z,20.40
2023-04-18T03:51:53.139Z,19.73
2023-04-18T03:54:22.170Z,24.30
2023-04-18T03:56:51.352Z,24.65
2023-04-18T03:59:22.725Z,27.27
2023-04-18T04:01:52.682Z,23.17
2023-04-18T04:04:22.975Z,21.30
2023-04-18T04:06:54.014Z,29.15
2023-04-18T04:09:22.515Z,23.13
2023-04-18T04:11:54.286Z,26.23
2023-04-18T04:14:22.988Z,22.02
2023-04-18T04:16:52.699Z,22.10
2023-04-18T04:19:22.767Z,21.30
2023-04-18T04:22:00.451Z,23.27
2023-04-18T04:24:29.621Z,20.17
2023-04-18T04:26:58.931Z,27.65
2023-04-18T04:29:29.139Z,21.95
2023-04-18T04:31:59.774Z,27.45
2023-04-18T04:34:37.006Z,24.65
2023-04-18T04:37:09.279Z,27.60
2023-04-18T04:39:46.999Z,26.42
2023-04-18T04:42:35.930Z,19.80
2023-04-18T04:45:12.532Z,26.98
2023-04-18T04:47:41.287Z,22.88
2023-04-18T04:50:15.639Z,26.75
2023-04-18T04:52:44.527Z,25.40
2023-04-18T04:55:15.876Z,21.45
2023-04-18T04:57:45.993Z,31.02
2023-04-18T05:00:28.915Z,26.60
2023-04-18T05:02:58.636Z,24.77
2023-04-18T05:05:30.214Z,22.52
2023-04-18T05:07:58.803Z,26.83
2023-04-18T05:10:27.160Z,31.10
2023-04-18T05:12:55.599Z,27.67
2023-04-18T05:15:24.294Z,37.15
2023-04-18T05:17:53.229Z,27.48
2023-04-18T05:20:23.767Z,32.58
2023-04-18T05:22:53.931Z,29.10
2023-04-18T05:25:22.496Z,34.63
2023-04-18T05:27:51.920Z,30.05
2023-04-18T05:30:20.971Z,25.73
2023-04-18T05:32:50.655Z,22.77
2023-04-18T05:35:19.040Z,26.33
2023-04-18T05:37:47.640Z,27.33
2023-04-18T05:40:17.465Z,30.60
2023-04-18T05:42:47.634Z,27.70
2023-04-18T05:45:16.038Z,33.50
2023-04-18T05:47:44.738Z,27.42
2023-04-18T05:50:15.945Z,26.77
2023-04-18T05:52:44.483Z,24.63
2023-04-18T05:55:15.246Z,53.47
2023-04-18T05:57:45.219Z,19.67
2023-04-18T06:00:14.864Z,20.13
2023-04-18T06:02:45.844Z,28.85
2023-04-18T06:05:14.955Z,23.60
2023-04-18T06:07:43.905Z,26.60
2023-04-18T06:10:13.837Z,27.00
2023-04-18T06:12:42.325Z,24.48
2023-04-18T06:15:13.298Z,23.52
2023-04-18T06:17:42.218Z,23.80
2023-04-18T06:20:11.794Z,34.10
2023-04-18T06:22:40.385Z,23.67
2023-04-18T06:25:10.171Z,30.35
2023-04-18T06:27:39.076Z,27.13
2023-04-18T06:30:08.953Z,26.63
2023-04-18T06:32:40.730Z,31.83
2023-04-18T06:35:09.866Z,28.20
2023-04-18T06:37:38.222Z,24.35
2023-04-18T06:40:08.223Z,26.00
2023-04-18T06:42:36.807Z,30.55
2023-04-18T06:45:06.424Z,38.60
2023-04-18T06:47:38.669Z,38.47
2023-04-18T06:50:08.250Z,28.45
2023-04-18T06:52:40.683Z,28.15
2023-04-18T06:55:11.768Z,28.02
2023-04-18T06:57:41.318Z,33.22
2023-04-18T07:00:11.263Z,33.10
2023-04-18T07:02:41.662Z,40.58
2023-04-18T07:05:10.962Z,29.13
2023-04-18T07:07:39.584Z,25.88
2023-04-18T07:10:11.964Z,45.80
2023-04-18T07:12:40.629Z,32.10
2023-04-18T07:15:10.322Z,36.83
2023-04-18T07:17:40.581Z,35.28
2023-04-18T07:20:14.236Z,45.10
2023-04-18T07:22:43.112Z,33.80
2023-04-18T07:25:11.668Z,29.42
2023-04-18T07:27:40.119Z,41.20
2023-04-18T07:30:09.888Z,44.47
2023-04-18T07:32:38.613Z,63.22
2023-04-18T07:35:08.976Z,60.15
2023-04-18T07:37:38.422Z,29.48
2023-04-18T07:40:08.496Z,31.13
2023-04-18T07:42:37.199Z,21.00
2023-04-18T07:45:07.068Z,27.98
2023-04-18T07:47:35.509Z,37.38
2023-04-18T07:50:05.478Z,32.15
2023-04-18T07:52:37.355Z,29.10
2023-04-18T07:55:07.796Z,25.58
2023-04-18T07:57:39.342Z,21.88
2023-04-18T08:00:09.673Z,23.88
2023-04-18T08:02:42.894Z,14.25
2023-04-18T08:05:12.149Z,17.80
2023-04-18T08:07:41.973Z,21.35
2023-04-18T08:10:11.599Z,17.98
2023-04-18T08:12:43.314Z,21.00
2023-04-18T08:15:12.959Z,14.75
2023-04-18T08:17:43.993Z,20.38
2023-04-18T08:20:16.346Z,13.80
2023-04-18T08:23:05.150Z,15.18
2023-04-18T08:25:36.443Z,20.77
2023-04-18T08:28:05.259Z,19.48
2023-04-18T08:30:38.072Z,19.42
2023-04-18T08:33:06.650Z,19.67
2023-04-18T08:35:35.387Z,17.85
2023-04-18T08:38:08.241Z,22.23
2023-04-18T08:40:36.792Z,25.73
2023-04-18T08:43:09.501Z,19.73
2023-04-18T08:45:41.347Z,16.52
2023-04-18T08:48:13.973Z,21.83
2023-04-18T08:50:43.380Z,22.98
2023-04-18T08:53:14.671Z,23.08
2023-04-18T08:55:44.607Z,22.02
2023-04-18T08:58:13.817Z,20.15
2023-04-18T09:00:43.155Z,21.35
2023-04-18T09:03:15.718Z,22.02
2023-04-18T09:05:47.043Z,20.50
2023-04-18T09:08:26.741Z,25.48
2023-04-18T09:10:59.045Z,21.65
2023-04-18T09:13:41.162Z,16.58
2023-04-18T09:16:11.213Z,15.65
2023-04-18T09:18:46.576Z,18.23
2023-04-18T09:21:19.829Z,19.75
2023-04-18T09:23:50.829Z,21.10
2023-04-18T09:26:25.387Z,19.95
2023-04-18T09:28:55.968Z,20.98
2023-04-18T09:31:26.579Z,19.38
2023-04-18T09:33:56.889Z,25.85
2023-04-18T09:36:28.178Z,18.38
2023-04-18T09:38:58.382Z,24.20
2023-04-18T09:41:27.584Z,22.98
2023-04-18T09:44:14.968Z,24.85
2023-04-18T09:46:47.205Z,20.00
2023-04-18T09:49:17.668Z,27.05
2023-04-18T09:51:47.345Z,19.83
2023-04-18T09:54:18.415Z,16.92
2023-04-18T09:56:50.428Z,22.17
2023-04-18T09:59:30.433Z,19.65
2023-04-18T10:01:59.644Z,22.10
2023-04-18T10:04:29.565Z,16.98
2023-04-18T10:06:58.823Z,16.60
2023-04-18T10:09:31.540Z,19.65
2023-04-18T10:12:02.375Z,28.73
2023-04-18T10:14:33.352Z,20.10
2023-04-18T10:17:03.087Z,22.35
2023-04-18T10:19:31.972Z,17.77
2023-04-18T10:22:01.610Z,18.55
2023-04-18T10:24:53.293Z,18.35
2023-04-18T10:27:56.481Z,18.08
2023-04-18T10:31:03.963Z,17.88
2023-04-18T10:33:35.115Z,16.25
2023-04-18T10:36:06.939Z,19.90
2023-04-18T10:38:36.274Z,21.25
2023-04-18T10:41:26.068Z,16.27
2023-04-18T10:44:14.894Z,13.35
2023-04-18T10:46:45.056Z,18.55
2023-04-18T10:49:19.969Z,16.83
2023-04-18T10:51:53.088Z,16.55
2023-04-18T10:54:28.997Z,19.17
2023-04-18T10:57:00.078Z,20.42
2023-04-18T10:59:30.927Z,15.07
2023-04-18T11:02:09.247Z,22.05
2023-04-18T11:04:38.070Z,18.80
2023-04-18T11:07:06.801Z,14.75
2023-04-18T11:09:35.584Z,13.80
2023-04-18T11:12:07.596Z,18.20
2023-04-18T11:14:42.950Z,14.00
2023-04-18T11:17:22.072Z,13.63
2023-04-18T11:19:51.934Z,16.10
2023-04-18T11:22:20.444Z,16.65
2023-04-18T11:24:49.061Z,14.05
2023-04-18T11:27:18.893Z,15.02
2023-04-18T11:29:53.992Z,18.13
2023-04-18T11:32:26.330Z,15.40
2023-04-18T11:34:56.097Z,15.82
2023-04-18T11:37:24.421Z,18.65
2023-04-18T11:39:55.883Z,14.50
2023-04-18T11:42:29.459Z,17.83
2023-04-18T11:45:02.916Z,14.27
2023-04-18T11:47:36.043Z,15.80
2023-04-18T11:50:08.408Z,17.33
2023-04-18T11:52:37.595Z,14.70
2023-04-18T11:55:14.339Z,20.15
2023-04-18T11:57:51.322Z,16.17
2023-04-18T12:00:22.411Z,15.27
2023-04-18T12:02:51.975Z,15.52
2023-04-18T12:05:27.484Z,17.70
2023-04-18T12:07:56.697Z,16.38
2023-04-18T12:10:27.727Z,14.07
2023-04-18T12:12:59.719Z,11.70
2023-04-18T12:15:29.954Z,16.65
2023-04-18T12:18:01.989Z,15.32
2023-04-18T12:20:46.554Z,19.77
2023-04-18T12:23:31.062Z,12.35
2023-04-18T12:26:03.902Z,17.10
2023-04-18T12:28:34.158Z,13.48
2023-04-18T12:31:03.292Z,14.45
2023-04-18T12:33:32.125Z,17.15
2023-04-18T12:36:02.421Z,12.60
2023-04-18T12:38:30.954Z,14.10
2023-04-18T12:40:59.287Z,14.25
2023-04-18T12:43:31.091Z,13.90
2023-04-18T12:46:01.599Z,13.55
2023-04-18T12:48:30.398Z,18.63
2023-04-18T12:50:58.924Z,17.60
2023-04-18T12:53:27.326Z,19.85
2023-04-18T12:55:55.951Z,12.88
2023-04-18T12:58:24.992Z,15.35
2023-04-18T13:00:53.579Z,17.25
2023-04-18T13:03:23.607Z,17.58
2023-04-18T13:05:54.169Z,17.58
2023-04-18T13:08:23.368Z,17.83
2023-04-18T13:10:51.994Z,21.35
2023-04-18T13:13:20.589Z,22.23
2023-04-18T13:15:48.937Z,24.10
2023-04-18T13:18:19.222Z,22.88
2023-04-18T13:20:49.664Z,15.20
2023-04-18T13:23:18.520Z,19.02
2023-04-18T13:25:46.902Z,17.33
2023-04-18T13:28:15.657Z,17.73
2023-04-18T13:30:44.084Z,15.13
2023-04-18T13:33:12.868Z,18.25
2023-04-18T13:35:41.670Z,16.45
2023-04-18T13:38:13.420Z,21.25
2023-04-18T13:40:41.937Z,16.42
2023-04-18T13:43:13.110Z,16.05
2023-04-18T13:45:41.821Z,16.95
2023-04-18T13:48:10.749Z,16.63
2023-04-18T13:50:39.343Z,19.50
2023-04-18T13:53:07.718Z,19.98
2023-04-18T13:55:40.522Z,18.45
2023-04-18T13:58:09.937Z,17.33
2023-04-18T14:00:38.671Z,21.40
2023-04-18T14:03:07.859Z,15.38
2023-04-18T14:05:36.259Z,23.98
2023-04-18T14:08:05.111Z,16.08
2023-04-18T14:10:33.588Z,18.80
2023-04-18T14:13:09.225Z,14.73
2023-04-18T14:15:37.920Z,16.20
2023-04-18T14:18:09.193Z,11.60
2023-04-18T14:20:43.464Z,17.45
2023-04-18T14:23:12.230Z,25.83
2023-04-18T14:25:40.649Z,15.70
2023-04-18T14:28:13.200Z,16.40
2023-04-18T14:30:42.505Z,21.48
2023-04-18T14:33:11.239Z,14.27
2023-04-18T14:35:40.242Z,14.18
2023-04-18T14:38:08.675Z,17.17
2023-04-18T14:40:37.578Z,17.83
2023-04-18T14:43:06.278Z,13.57
2023-04-18T14:45:36.185Z,16.83
2023-04-18T14:48:05.237Z,17.65
2023-04-18T14:50:34.550Z,17.38
2023-04-18T14:53:03.272Z,17.98
2023-04-18T14:55:32.074Z,15.98
2023-04-18T14:58:00.738Z,14.88
2023-04-18T15:00:33.146Z,12.85
2023-04-18T15:03:04.136Z,15.95
2023-04-18T15:05:34.917Z,15.40
2023-04-18T15:08:04.581Z,14.73
2023-04-18T15:10:37.570Z,14.10
2023-04-18T15:13:06.157Z,18.58
2023-04-18T15:15:35.980Z,12.95
2023-04-18T15:18:08.769Z,16.60
2023-04-18T15:20:40.700Z,20.55
2023-04-18T15:23:09.920Z,16.58
2023-04-18T15:25:38.432Z,14.55
2023-04-18T15:28:07.210Z,16.15
2023-04-18T15:30:35.860Z,16.75
2023-04-18T15:33:04.621Z,12.48
2023-04-18T15:35:34.394Z,15.65
2023-04-18T15:38:03.053Z,12.68
2023-04-18T15:40:37.224Z,14.63
2023-04-18T15:43:08.305Z,15.95
2023-04-18T15:45:37.143Z,14.27
2023-04-18T15:48:05.945Z,11.57
2023-04-18T15:50:37.077Z,17.50
2023-04-18T15:53:05.466Z,12.75
2023-04-18T15:55:34.454Z,14.90
2023-04-18T15:58:03.051Z,14.98
2023-04-18T16:00:31.874Z,14.93
2023-04-18T16:03:01.954Z,14.30
2023-04-18T16:05:31.398Z,11.57
2023-04-18T16:08:02.455Z,16.77
2023-04-18T16:10:31.787Z,10.50
2023-04-18T16:13:00.627Z,15.15
2023-04-18T16:15:29.736Z,11.20
2023-04-18T16:17:58.567Z,13.68
2023-04-18T16:20:27.480Z,12.90
2023-04-18T16:22:56.107Z,9.63
2023-04-18T16:25:26.439Z,14.40
2023-04-18T16:27:54.915Z,12.77
2023-04-18T16:30:23.349Z,15.15
2023-04-18T16:32:55.490Z,16.52
2023-04-18T16:35:26.888Z,13.25
2023-04-18T16:37:55.262Z,11.32
2023-04-18T16:40:30.614Z,11.52
2023-04-18T16:42:59.346Z,7.65
2023-04-18T16:45:27.798Z,13.90
2023-04-18T16:47:56.317Z,12.30
2023-04-18T16:50:27.346Z,10.45
2023-04-18T16:52:55.762Z,11.07
2023-04-18T16:55:26.483Z,13.85
2023-04-18T16:57:55.243Z,9.18
2023-04-18T17:00:23.707Z,9.10
2023-04-18T17:02:52.465Z,8.55
2023-04-18T17:05:21.610Z,10.00
2023-04-18T17:07:51.669Z,11.55
2023-04-18T17:10:21.765Z,10.35
2023-04-18T17:12:51.798Z,9.18
2023-04-18T17:15:23.002Z,8.98
2023-04-18T17:17:51.756Z,5.88
2023-04-18T17:20:21.555Z,8.75
2023-04-18T17:22:50.044Z,13.27
2023-04-18T17:25:18.760Z,8.52
2023-04-18T17:27:47.405Z,11.63
2023-04-18T17:30:17.723Z,11.50
2023-04-18T17:32:47.350Z,8.13
2023-04-18T17:35:16.014Z,11.48
2023-04-18T17:37:44.626Z,12.57
2023-04-18T17:40:13.798Z,11.93
2023-04-18T17:42:42.396Z,8.48
2023-04-18T17:45:11.306Z,13.23
2023-04-18T17:47:41.329Z,12.85
2023-04-18T17:50:10.310Z,12.55
2023-04-18T17:52:38.817Z,15.52
2023-04-18T17:55:08.049Z,13.63
2023-04-18T17:57:36.672Z,11.07
2023-04-18T18:00:10.591Z,11.20
2023-04-18T18:02:43.509Z,14.07
2023-04-18T18:05:15.205Z,10.63
2023-04-18T18:07:47.528Z,12.82
2023-04-18T18:10:20.114Z,10.48
2023-04-18T18:12:48.939Z,14.70
2023-04-18T18:15:17.791Z,10.65
2023-04-18T18:17:49.398Z,13.45
2023-04-18T18:20:18.063Z,13.88
2023-04-18T18:22:47.391Z,10.73
2023-04-18T18:25:16.149Z,10.38
2023-04-18T18:27:44.877Z,10.77
2023-04-18T18:30:13.801Z,12.98
2023-04-18T18:32:42.708Z,10.40
2023-04-18T18:35:14.002Z,10.10
2023-04-18T18:37:42.752Z,8.85
2023-04-18T18:40:12.633Z,15.70
2023-04-18T18:42:42.506Z,8.02
2023-04-18T18:45:11.566Z,11.90
2023-04-18T18:47:40.400Z,8.77
2023-04-18T18:50:09.777Z,16.45
2023-04-18T18:52:40.886Z,10.90
2023-04-18T18:55:10.401Z,11.13
2023-04-18T18:57:39.497Z,7.40
2023-04-18T19:00:11.236Z,10.13
2023-04-18T19:02:40.724Z,8.85
2023-04-18T19:05:09.907Z,12.23
2023-04-18T19:07:41.904Z,10.30
2023-04-18T19:10:11.906Z,11.88
2023-04-18T19:12:40.761Z,12.20
2023-04-18T19:15:11.655Z,7.25
2023-04-18T19:17:40.210Z,8.57
2023-04-18T19:20:09.859Z,8.27
2023-04-18T19:22:40.597Z,8.02
2023-04-18T19:25:10.806Z,7.57
2023-04-18T19:27:39.208Z,14.80
2023-04-18T19:30:09.129Z,15.20
2023-04-18T19:32:37.831Z,10.10
2023-04-18T19:35:07.170Z,12.55
2023-04-18T19:37:36.759Z,11.90
2023-04-18T19:40:08.127Z,10.10
2023-04-18T19:42:36.684Z,10.27
2023-04-18T19:45:06.318Z,8.30
2023-04-18T19:47:34.905Z,10.32
2023-04-18T19:50:03.627Z,10.57
2023-04-18T19:52:32.678Z,8.63
2023-04-18T19:55:01.004Z,8.25
2023-04-18T19:57:39.465Z,10.13
2023-04-18T20:00:09.453Z,8.45
2023-04-18T20:02:43.053Z,7.53
2023-04-18T20:05:13.016Z,7.28
2023-04-18T20:07:41.891Z,9.10
2023-04-18T20:10:11.523Z,6.85
2023-04-18T20:12:41.470Z,7.75
2023-04-18T20:15:10.841Z,7.30
2023-04-18T20:17:39.344Z,8.98
2023-04-18T20:20:11.378Z,11.07
2023-04-18T20:22:41.958Z,5.97
2023-04-18T20:25:10.496Z,6.18
2023-04-18T20:27:39.306Z,5.65
2023-04-18T20:30:10.356Z,9.05
2023-04-18T20:32:38.917Z,7.07
2023-04-18T20:35:08.546Z,8.15
2023-04-18T20:37:37.149Z,6.50
2023-04-18T20:40:07.282Z,8.38
2023-04-18T20:42:36.731Z,10.70
2023-04-18T20:45:05.489Z,7.88
2023-04-18T20:47:35.947Z,7.35
2023-04-18T20:50:05.804Z,10.73
2023-04-18T20:52:34.576Z,9.50
2023-04-18T20:55:03.282Z,7.65
2023-04-18T20:57:32.077Z,9.60
2023-04-18T21:00:00.835Z,8.57
2023-04-18T21:02:29.428Z,7.68
2023-04-18T21:05:01.641Z,7.43
2023-04-18T21:07:33.185Z,10.02
2023-04-18T21:10:01.735Z,11.07
2023-04-18T21:12:35.271Z,6.43
2023-04-18T21:15:05.538Z,10.65
2023-04-18T21:17:34.244Z,8.38
2023-04-18T21:20:04.477Z,13.98
2023-04-18T21:22:32.902Z,9.90
2023-04-18T21:25:01.461Z,12.40
2023-04-18T21:27:32.667Z,9.63
2023-04-18T21:30:02.895Z,9.38
2023-04-18T21:32:33.554Z,9.70
2023-04-18T21:35:03.479Z,5.53
2023-04-18T21:37:32.707Z,8.07
2023-04-18T21:40:01.878Z,8.80
2023-04-18T21:42:32.335Z,9.27
2023-04-18T21:45:00.852Z,9.10
2023-04-18T21:47:33.506Z,10.10
2023-04-18T21:50:04.076Z,8.27
2023-04-18T21:52:32.711Z,7.13
2023-04-18T21:55:01.163Z,10.40
2023-04-18T21:57:34.289Z,8.27
2023-04-18T22:00:03.473Z,7.22
2023-04-18T22:02:38.627Z,8.38
2023-04-18T22:05:09.230Z,7.53
2023-04-18T22:07:46.696Z,9.45
2023-04-18T22:10:24.954Z,6.10
2023-04-18T22:12:54.647Z,8.05
2023-04-18T22:15:23.792Z,8.27
2023-04-18T22:17:52.448Z,8.00
2023-04-18T22:20:22.672Z,8.15
2023-04-18T22:22:51.206Z,10.35
2023-04-18T22:25:19.712Z,9.68
2023-04-18T22:27:48.428Z,9.30
2023-04-18T22:30:17.737Z,8.85
2023-04-18T22:32:47.507Z,6.80
2023-04-18T22:35:16.122Z,10.30
2023-04-18T22:37:46.298Z,8.68
2023-04-18T22:40:16.670Z,6.93
2023-04-18T22:42:45.253Z,12.15
2023-04-18T22:45:13.733Z,7.75
2023-04-18T22:47:42.359Z,9.73
2023-04-18T22:50:11.541Z,7.00
2023-04-18T22:52:40.106Z,9.05
2023-04-18T22:55:11.225Z,7.40
2023-04-18T22:57:39.892Z,7.35
2023-04-18T23:00:10.980Z,8.95
2023-04-18T23:02:39.779Z,8.50
2023-04-18T23:05:09.078Z,5.95
2023-04-18T23:07:37.963Z,7.15
2023-04-18T23:10:07.974Z,8.55
2023-04-18T23:12:37.707Z,11.52
2023-04-18T23:15:08.921Z,8.35
2023-04-18T23:17:37.541Z,7.88
2023-04-18T23:20:07.836Z,8.73
2023-04-18T23:22:36.398Z,9.95
2023-04-18T23:25:05.186Z,9.13
2023-04-18T23:27:33.795Z,9.07
2023-04-18T23:30:03.653Z,11.38
2023-04-18T23:32:35.022Z,12.35
2023-04-18T23:35:04.673Z,12.30
2023-04-18T23:37:35.031Z,6.97
2023-04-18T23:40:06.979Z,12.25
2023-04-18T23:42:35.914Z,9.10
2023-04-18T23:45:07.091Z,10.90
2023-04-18T23:47:36.613Z,8.05
2023-04-18T23:50:05.516Z,10.35
2023-04-18T23:52:35.064Z,7.85
2023-04-18T23:55:03.788Z,7.78
2023-04-18T23:57:35.232Z,8.73
